Time;durP1;ratioP1;P1;durP2;ratioP2;P2;SDS_P1;SDS_P2;PMS_P1;PMS_P2;Temp;Humidity;BMP_temperature;BMP_pressure;BME280_temperature;BME280_humidity;BME280_pressure;Samples;Min_cycle;Max_cycle;Signal;HPM_P1;HPM_P2
2023/11/20 00:00:55;;;;;;;13.85;2.70;;;13.10;99.90;;;;;;5031125;27;20382;-72
2023/11/20 00:03:21;;;;;;;12.27;3.58;;;13.00;99.90;;;;;;5034328;27;20036;-72
2023/11/20 00:05:47;;;;;;;9.05;2.17;;;13.00;99.90;;;;;;5041737;27;20618;-73
2023/11/20 00:08:12;;;;;;;10.18;2.40;;;13.00;99.90;;;;;;5041138;27;20028;-73
2023/11/20 00:10:38;;;;;;;9.73;2.95;;;13.00;99.90;;;;;;5044834;27;20042;-72
2023/11/20 00:13:07;;;;;;;9.40;2.30;;;13.00;99.90;;;;;;5041144;27;20031;-72
2023/11/20 00:15:34;;;;;;;7.97;2.55;;;12.90;99.90;;;;;;5021885;27;20029;-73
2023/11/20 00:18:00;;;;;;;9.95;2.50;;;12.90;99.90;;;;;;5030747;27;20074;-72
2023/11/20 00:20:26;;;;;;;12.98;2.55;;;13.00;99.90;;;;;;5034943;27;20029;-72
2023/11/20 00:22:51;;;;;;;11.15;2.47;;;13.00;99.90;;;;;;5041337;27;20028;-72
2023/11/20 00:25:17;;;;;;;8.30;2.40;;;12.90;99.90;;;;;;5041868;27;20576;-73
2023/11/20 00:27:43;;;;;;;9.63;2.58;;;12.90;99.90;;;;;;5042028;27;20085;-72
2023/11/20 00:30:09;;;;;;;8.18;1.98;;;12.90;99.90;;;;;;5029130;27;20474;-74
2023/11/20 00:32:35;;;;;;;11.68;2.08;;;12.90;99.90;;;;;;5037988;27;20034;-74
2023/11/20 00:35:00;;;;;;;8.98;2.25;;;13.00;99.90;;;;;;5025326;27;20026;-74
2023/11/20 00:37:26;;;;;;;11.35;2.70;;;13.00;99.90;;;;;;5042030;27;20402;-73
2023/11/20 00:39:51;;;;;;;6.20;1.83;;;13.00;99.90;;;;;;5028691;28;22806;-73
2023/11/20 00:42:17;;;;;;;14.73;2.30;;;13.00;99.90;;;;;;5032938;27;20093;-74
2023/11/20 00:44:43;;;;;;;11.68;2.63;;;13.00;99.90;;;;;;5034739;28;20473;-74
2023/11/20 00:47:09;;;;;;;8.25;2.60;;;13.00;99.90;;;;;;5031706;27;20064;-74
2023/11/20 00:49:34;;;;;;;10.07;2.35;;;13.00;99.90;;;;;;5035828;27;20029;-74
2023/11/20 00:52:01;;;;;;;10.63;2.65;;;13.00;99.90;;;;;;5028217;28;20040;-73
2023/11/20 00:54:27;;;;;;;10.82;2.40;;;12.90;99.90;;;;;;5030129;27;20137;-76
2023/11/20 00:56:52;;;;;;;11.60;2.72;;;13.00;99.90;;;;;;5036885;27;20112;-74
2023/11/20 00:59:18;;;;;;;9.80;2.47;;;12.90;99.90;;;;;;5039958;27;20488;-73
2023/11/20 01:01:44;;;;;;;9.70;2.47;;;12.90;99.90;;;;;;5039449;27;20104;-74
2023/11/20 01:04:10;;;;;;;15.90;3.97;;;13.00;99.90;;;;;;5027351;27;20154;-73
2023/11/20 01:06:39;;;;;;;14.68;3.03;;;12.90;99.90;;;;;;5026286;27;20025;-74
2023/11/20 01:09:06;;;;;;;14.90;3.05;;;12.90;99.90;;;;;;5033762;27;20029;-73
2023/11/20 01:11:32;;;;;;;11.48;2.70;;;12.90;99.90;;;;;;5036423;27;20034;-74
2023/11/20 01:14:01;;;;;;;12.90;3.67;;;12.90;99.90;;;;;;5040953;27;20025;-74
2023/11/20 01:16:27;;;;;;;14.05;3.50;;;12.90;99.90;;;;;;5038148;27;20058;-74
2023/11/20 01:18:54;;;;;;;17.17;3.60;;;12.90;99.90;;;;;;5025814;27;20055;-73
2023/11/20 01:21:21;;;;;;;17.80;3.10;;;12.90;99.90;;;;;;5039324;27;20473;-73
2023/11/20 01:23:46;;;;;;;13.07;2.95;;;12.90;99.90;;;;;;5027360;28;20026;-75
2023/11/20 01:26:12;;;;;;;17.35;3.50;;;12.90;99.90;;;;;;5032821;28;20412;-75
2023/11/20 01:28:38;;;;;;;21.25;3.60;;;12.90;99.90;;;;;;5034403;28;20075;-74
2023/11/20 01:31:04;;;;;;;14.93;3.50;;;12.90;99.90;;;;;;5025112;28;20033;-73
2023/11/20 01:33:30;;;;;;;19.48;3.80;;;12.90;99.90;;;;;;5035579;27;20027;-73
2023/11/20 01:35:56;;;;;;;17.67;3.72;;;12.90;99.90;;;;;;5032382;27;20055;-73
2023/11/20 01:38:22;;;;;;;21.38;4.15;;;12.90;99.90;;;;;;5029420;27;20519;-74
2023/11/20 01:40:54;;;;;;;20.92;4.03;;;12.90;99.90;;;;;;5042152;27;20124;-73
2023/11/20 01:43:20;;;;;;;15.13;3.83;;;12.80;99.90;;;;;;5034856;27;20021;-74
2023/11/20 01:45:47;;;;;;;14.68;4.22;;;12.80;99.90;;;;;;5022410;27;20071;-77
2023/11/20 01:48:14;;;;;;;23.25;4.28;;;12.70;99.90;;;;;;5032660;28;20029;-74
2023/11/20 01:50:40;;;;;;;18.23;3.63;;;12.80;99.90;;;;;;5023105;28;20029;-73
2023/11/20 01:53:07;;;;;;;18.95;3.58;;;12.80;99.90;;;;;;5035941;28;20104;-73
2023/11/20 01:55:33;;;;;;;21.83;3.88;;;12.80;99.90;;;;;;5039413;28;20021;-73
2023/11/20 01:57:59;;;;;;;17.10;3.42;;;12.80;99.90;;;;;;5024110;28;20041;-74
2023/11/20 02:00:26;;;;;;;17.15;3.88;;;12.90;99.90;;;;;;5033580;28;20140;-74
2023/11/20 02:02:52;;;;;;;23.60;3.53;;;12.80;99.90;;;;;;5043299;28;20100;-74
2023/11/20 02:05:19;;;;;;;15.40;3.97;;;12.90;99.90;;;;;;5036416;27;20140;-74
2023/11/20 02:07:45;;;;;;;27.27;4.72;;;12.90;99.90;;;;;;5032665;28;20111;-73
2023/11/20 02:10:11;;;;;;;19.75;3.75;;;12.80;99.90;;;;;;5035044;28;20108;-73
2023/11/20 02:12:37;;;;;;;21.42;3.85;;;12.80;99.90;;;;;;5034270;28;20029;-73
2023/11/20 02:15:05;;;;;;;18.30;3.92;;;12.80;99.90;;;;;;5029092;28;20113;-73
2023/11/20 02:17:32;;;;;;;28.13;4.65;;;12.70;99.90;;;;;;5029511;28;20060;-73
2023/11/20 02:19:58;;;;;;;21.52;4.32;;;12.80;99.90;;;;;;5038613;28;20053;-73
2023/11/20 02:22:24;;;;;;;16.63;3.22;;;12.80;99.90;;;;;;5032290;28;20458;-74
2023/11/20 02:24:50;;;;;;;23.52;4.10;;;12.80;99.90;;;;;;5007774;28;20121;-73
2023/11/20 02:27:57;;;;;;;18.98;3.67;;;12.70;99.90;;;;;;5024106;28;20028;-75
2023/11/20 02:30:24;;;;;;;22.15;4.15;;;12.80;99.90;;;;;;5033045;28;20030;-73
2023/11/20 02:32:50;;;;;;;21.85;4.25;;;12.80;99.90;;;;;;5017393;28;20482;-74
2023/11/20 02:35:17;;;;;;;17.67;3.53;;;12.70;99.90;;;;;;5029218;28;20070;-73
2023/11/20 02:37:43;;;;;;;19.77;3.75;;;12.70;99.90;;;;;;5024161;28;20079;-74
2023/11/20 02:40:10;;;;;;;17.95;4.00;;;12.80;99.90;;;;;;5024594;28;20022;-74
2023/11/20 02:42:36;;;;;;;22.95;4.22;;;12.80;99.90;;;;;;5016045;28;20018;-73
2023/11/20 02:45:03;;;;;;;22.08;4.05;;;12.70;99.90;;;;;;5028678;28;20038;-73
2023/11/20 02:47:28;;;;;;;13.57;3.80;;;12.70;99.90;;;;;;5023507;28;20093;-72
2023/11/20 02:49:54;;;;;;;19.63;4.25;;;12.70;99.90;;;;;;5021028;28;20473;-75
2023/11/20 02:52:20;;;;;;;21.08;4.05;;;12.70;99.90;;;;;;5030749;28;20520;-73
2023/11/20 02:54:46;;;;;;;19.83;3.83;;;12.60;99.90;;;;;;5018578;28;20101;-73
2023/11/20 02:57:12;;;;;;;21.67;3.85;;;12.60;99.90;;;;;;5038609;27;20098;-73
2023/11/20 02:59:38;;;;;;;24.48;4.35;;;12.60;99.90;;;;;;5023474;27;20026;-73
2023/11/20 03:02:04;;;;;;;24.77;4.22;;;12.70;99.90;;;;;;5021377;27;20444;-74
2023/11/20 03:04:29;;;;;;;15.68;3.28;;;12.60;99.90;;;;;;5027021;27;20033;-76
2023/11/20 03:06:55;;;;;;;20.00;4.03;;;12.60;99.90;;;;;;5023266;27;20026;-73
2023/11/20 03:09:22;;;;;;;17.70;3.42;;;12.60;99.90;;;;;;5039210;27;20076;-73
2023/11/20 03:11:48;;;;;;;13.45;3.15;;;12.60;99.90;;;;;;5021882;28;20022;-74
2023/11/20 03:14:14;;;;;;;19.38;3.70;;;12.60;99.90;;;;;;5024897;27;20026;-73
2023/11/20 03:16:40;;;;;;;17.02;3.22;;;12.60;99.90;;;;;;5030994;27;20011;-73
2023/11/20 03:19:06;;;;;;;15.65;3.70;;;12.50;99.90;;;;;;5029963;27;20049;-74
2023/11/20 03:21:33;;;;;;;12.48;3.70;;;12.50;99.90;;;;;;5039428;27;20041;-76
2023/11/20 03:23:59;;;;;;;16.45;3.60;;;12.50;99.90;;;;;;5023077;27;20025;-74
2023/11/20 03:26:26;;;;;;;15.70;3.25;;;12.50;99.90;;;;;;5035550;27;20482;-74
2023/11/20 03:28:52;;;;;;;11.63;3.10;;;12.50;99.90;;;;;;5035943;27;20026;-73
2023/11/20 03:31:19;;;;;;;17.48;3.75;;;12.50;99.90;;;;;;5036279;27;20029;-73
2023/11/20 03:33:48;;;;;;;11.52;2.97;;;12.50;99.90;;;;;;5036142;27;20074;-76
2023/11/20 03:36:14;;;;;;;18.88;3.47;;;12.40;99.90;;;;;;5028588;27;20029;-74
2023/11/20 03:38:41;;;;;;;14.50;2.78;;;12.50;99.90;;;;;;5026706;27;20034;-74
2023/11/20 03:41:08;;;;;;;17.45;3.20;;;12.50;99.90;;;;;;5033575;27;20041;-74
2023/11/20 03:43:34;;;;;;;13.07;2.80;;;12.40;99.90;;;;;;5025625;27;20398;-74
2023/11/20 03:46:00;;;;;;;11.07;2.45;;;12.50;99.90;;;;;;5026476;27;20035;-73
2023/11/20 03:48:26;;;;;;;11.35;2.65;;;12.60;99.90;;;;;;5027988;27;20490;-74
2023/11/20 03:50:52;;;;;;;14.73;3.65;;;12.50;99.90;;;;;;5025261;27;20083;-75
2023/11/20 03:53:17;;;;;;;11.95;3.08;;;12.60;99.90;;;;;;5034393;27;20029;-76
2023/11/20 03:55:43;;;;;;;11.27;3.03;;;12.60;99.90;;;;;;5036873;27;20052;-73
2023/11/20 03:58:09;;;;;;;9.15;3.60;;;12.70;99.90;;;;;;5025235;27;20037;-73
2023/11/20 04:00:34;;;;;;;16.48;3.50;;;12.70;99.90;;;;;;5029941;27;20471;-73
2023/11/20 04:03:00;;;;;;;14.90;3.67;;;12.70;99.90;;;;;;5027252;27;20485;-77
2023/11/20 04:05:26;;;;;;;17.90;3.42;;;12.70;99.90;;;;;;5024651;27;20724;-73
2023/11/20 04:07:52;;;;;;;16.23;3.95;;;12.80;99.90;;;;;;5031900;27;20014;-73
2023/11/20 04:10:18;;;;;;;16.02;3.95;;;12.70;99.90;;;;;;5024899;27;20041;-73
2023/11/20 04:12:47;;;;;;;17.27;3.67;;;12.70;99.90;;;;;;5027198;27;20017;-74
2023/11/20 04:15:12;;;;;;;19.27;4.05;;;12.70;99.90;;;;;;5029239;27;20049;-73
2023/11/20 04:17:39;;;;;;;13.90;3.63;;;12.70;99.90;;;;;;5025622;27;20466;-74
2023/11/20 04:20:06;;;;;;;17.42;4.13;;;12.70;99.90;;;;;;5029491;27;20033;-76
2023/11/20 04:22:34;;;;;;;19.00;3.75;;;12.80;99.90;;;;;;5012521;27;20114;-73
2023/11/20 04:25:00;;;;;;;16.70;3.92;;;12.80;99.90;;;;;;5025417;27;20030;-74
2023/11/20 04:27:26;;;;;;;16.75;3.88;;;12.90;99.90;;;;;;5032981;27;20032;-75
2023/11/20 04:29:52;;;;;;;15.82;4.80;;;12.90;99.90;;;;;;5030435;27;20061;-74
2023/11/20 04:32:18;;;;;;;12.85;3.35;;;12.80;99.90;;;;;;5032141;27;20013;-73
2023/11/20 04:34:44;;;;;;;14.45;3.47;;;12.80;99.90;;;;;;5020579;27;20423;-77
2023/11/20 04:37:10;;;;;;;21.48;4.50;;;12.80;99.90;;;;;;5028372;27;20025;-74
2023/11/20 04:39:35;;;;;;;22.90;4.70;;;12.70;99.90;;;;;;5033512;27;20139;-74
2023/11/20 04:42:01;;;;;;;19.33;3.95;;;12.80;99.90;;;;;;5039994;27;20030;-73
2023/11/20 04:44:27;;;;;;;25.02;4.85;;;12.70;99.90;;;;;;5030439;27;20061;-74
2023/11/20 04:46:53;;;;;;;24.60;4.22;;;12.70;99.90;;;;;;5025675;27;20487;-74
2023/11/20 04:49:19;;;;;;;20.80;4.45;;;12.70;99.90;;;;;;5029966;27;20432;-76
2023/11/20 04:51:45;;;;;;;22.25;4.13;;;12.70;99.90;;;;;;5035735;27;20562;-74
2023/11/20 04:54:11;;;;;;;24.42;4.07;;;12.70;99.90;;;;;;5036198;27;20038;-76
2023/11/20 04:56:37;;;;;;;20.85;4.32;;;12.60;99.90;;;;;;5027207;27;20021;-73
2023/11/20 04:59:04;;;;;;;26.38;4.50;;;12.60;99.90;;;;;;5025228;27;20727;-73
2023/11/20 05:01:33;;;;;;;21.77;4.45;;;12.70;99.90;;;;;;5029039;27;20351;-74
2023/11/20 05:03:59;;;;;;;21.70;4.32;;;12.60;99.90;;;;;;5037289;27;20607;-74
2023/11/20 05:06:25;;;;;;;21.50;4.50;;;12.60;99.90;;;;;;5032493;27;20033;-74
2023/11/20 05:08:51;;;;;;;26.45;3.85;;;12.60;99.90;;;;;;5038519;27;20034;-73
2023/11/20 05:11:17;;;;;;;22.38;4.28;;;12.60;99.90;;;;;;5017266;27;20083;-74
2023/11/20 05:13:43;;;;;;;19.25;4.40;;;12.60;99.90;;;;;;5019947;27;20025;-76
2023/11/20 05:16:08;;;;;;;19.05;4.28;;;12.50;99.90;;;;;;5037230;27;20112;-75
2023/11/20 05:18:34;;;;;;;27.92;5.03;;;12.50;99.90;;;;;;5020718;27;20436;-73
2023/11/20 05:21:00;;;;;;;20.52;4.15;;;12.50;99.90;;;;;;5027323;27;20024;-73
2023/11/20 05:23:26;;;;;;;25.10;4.50;;;12.60;99.90;;;;;;5036821;27;20097;-74
2023/11/20 05:25:53;;;;;;;28.60;5.13;;;12.60;99.90;;;;;;5033411;27;20045;-76
2023/11/20 05:28:20;;;;;;;22.95;4.95;;;12.60;99.90;;;;;;5022974;27;20017;-73
2023/11/20 05:30:46;;;;;;;22.60;5.47;;;12.60;99.90;;;;;;5025443;27;20492;-73
2023/11/20 05:33:12;;;;;;;26.15;5.43;;;12.70;99.90;;;;;;5029917;27;20030;-76
2023/11/20 05:35:39;;;;;;;28.25;5.80;;;12.60;99.90;;;;;;5019151;27;20125;-73
2023/11/20 05:38:05;;;;;;;20.65;4.68;;;12.50;99.90;;;;;;5030442;27;20053;-74
2023/11/20 05:40:32;;;;;;;22.10;5.28;;;12.50;99.90;;;;;;5020788;28;20056;-77
2023/11/20 05:42:57;;;;;;;25.98;4.53;;;12.50;99.90;;;;;;5028275;27;20017;-73
2023/11/20 05:45:23;;;;;;;24.85;4.38;;;12.50;99.90;;;;;;5035932;27;20038;-73
2023/11/20 05:47:49;;;;;;;19.90;4.43;;;12.50;99.90;;;;;;5039542;27;20024;-76
2023/11/20 05:50:15;;;;;;;19.83;4.90;;;12.50;99.90;;;;;;5024853;28;20101;-77
2023/11/20 05:52:40;;;;;;;24.63;4.75;;;12.50;99.90;;;;;;5028271;27;20029;-74
2023/11/20 05:55:07;;;;;;;27.98;5.72;;;12.50;99.90;;;;;;5033048;27;20036;-74
2023/11/20 05:57:33;;;;;;;29.38;4.88;;;12.50;99.90;;;;;;5018183;28;20566;-74
2023/11/20 05:59:59;;;;;;;22.83;5.53;;;12.50;99.90;;;;;;5030171;28;20038;-73
2023/11/20 06:02:25;;;;;;;23.17;4.75;;;12.60;99.90;;;;;;5028947;28;20022;-75
2023/11/20 06:04:50;;;;;;;21.90;4.50;;;12.60;99.90;;;;;;5043241;28;20032;-74
2023/11/20 06:07:16;;;;;;;24.38;5.70;;;12.60;99.90;;;;;;5032217;28;20029;-73
2023/11/20 06:09:42;;;;;;;20.80;5.00;;;12.70;99.90;;;;;;5025688;28;20452;-73
2023/11/20 06:12:08;;;;;;;33.05;5.65;;;12.60;99.90;;;;;;5021902;28;20018;-74
2023/11/20 06:14:33;;;;;;;29.05;5.18;;;12.60;99.90;;;;;;5035502;28;20680;-72
2023/11/20 06:16:59;;;;;;;25.40;5.80;;;12.60;99.90;;;;;;5023017;28;20482;-74
2023/11/20 06:19:27;;;;;;;21.02;4.45;;;12.50;99.90;;;;;;5026238;28;20042;-75
2023/11/20 06:21:54;;;;;;;27.58;5.63;;;12.50;99.90;;;;;;5022949;28;20030;-73
2023/11/20 06:24:21;;;;;;;22.38;4.55;;;12.60;99.90;;;;;;5030688;28;20025;-73
2023/11/20 06:26:47;;;;;;;34.10;5.45;;;12.50;99.90;;;;;;5029212;28;20052;-74
2023/11/20 06:29:13;;;;;;;21.48;4.82;;;12.50;99.90;;;;;;5031245;28;20359;-74
2023/11/20 06:31:38;;;;;;;29.52;4.82;;;12.50;99.90;;;;;;5025233;27;20032;-74
2023/11/20 06:34:04;;;;;;;18.67;4.68;;;12.50;99.90;;;;;;5034968;27;20025;-73
2023/11/20 06:36:30;;;;;;;25.90;5.43;;;12.50;99.90;;;;;;5026983;27;20025;-73
2023/11/20 06:38:57;;;;;;;23.40;4.65;;;12.60;99.90;;;;;;5028059;27;20064;-75
2023/11/20 06:41:23;;;;;;;30.38;4.93;;;12.60;99.90;;;;;;5030119;27;20049;-74
2023/11/20 06:43:49;;;;;;;22.67;4.50;;;12.60;99.90;;;;;;5032379;27;20355;-75
2023/11/20 06:46:22;;;;;;;17.30;4.05;;;12.60;99.90;;;;;;5019470;28;20514;-75
2023/11/20 06:48:48;;;;;;;21.48;4.82;;;12.60;99.90;;;;;;5026977;27;20109;-73
2023/11/20 06:51:15;;;;;;;23.20;4.28;;;12.60;99.90;;;;;;5030431;27;20056;-75
2023/11/20 06:53:43;;;;;;;19.67;4.20;;;12.60;99.90;;;;;;5021681;28;20054;-74
2023/11/20 06:56:18;;;;;;;29.00;4.90;;;12.50;99.90;;;;;;5022603;27;20022;-73
2023/11/20 06:58:44;;;;;;;18.60;3.97;;;12.60;99.90;;;;;;5030892;27;20018;-73
2023/11/20 07:01:11;;;;;;;25.10;4.28;;;12.50;99.90;;;;;;5021699;27;20022;-73
2023/11/20 07:03:42;;;;;;;24.60;5.15;;;12.40;99.90;;;;;;5023513;27;20022;-73
2023/11/20 07:06:10;;;;;;;19.17;4.90;;;12.40;99.90;;;;;;5026161;27;20073;-73
2023/11/20 07:08:36;;;;;;;22.63;4.45;;;12.40;99.90;;;;;;5022362;27;20026;-74
2023/11/20 07:11:02;;;;;;;23.95;4.70;;;12.40;99.90;;;;;;5030601;27;20022;-74
2023/11/20 07:13:27;;;;;;;28.85;4.80;;;12.40;99.90;;;;;;5020423;27;20014;-74
2023/11/20 07:15:53;;;;;;;24.40;4.55;;;12.40;99.90;;;;;;5029306;27;20057;-74
2023/11/20 07:18:19;;;;;;;38.65;4.72;;;12.40;99.90;;;;;;5022048;27;20026;-77
2023/11/20 07:20:46;;;;;;;17.90;4.00;;;12.30;99.90;;;;;;5018888;28;20097;-74
2023/11/20 07:23:12;;;;;;;27.02;4.75;;;12.30;99.90;;;;;;5025767;27;20470;-75
2023/11/20 07:25:38;;;;;;;27.98;4.93;;;12.30;99.90;;;;;;5029391;27;20108;-74
2023/11/20 07:28:04;;;;;;;30.85;5.35;;;12.30;99.90;;;;;;5022578;27;20077;-74
2023/11/20 07:30:33;;;;;;;31.48;5.03;;;12.30;99.90;;;;;;5026598;27;20367;-75
2023/11/20 07:33:00;;;;;;;25.52;4.55;;;12.30;99.90;;;;;;5020260;28;20032;-73
2023/11/20 07:35:27;;;;;;;23.25;5.35;;;12.30;99.90;;;;;;5031731;27;20026;-74
2023/11/20 07:37:52;;;;;;;29.98;5.10;;;12.20;99.90;;;;;;5035088;27;20465;-79
2023/11/20 07:40:18;;;;;;;31.77;5.85;;;12.20;99.90;;;;;;5039469;27;20104;-75
2023/11/20 07:42:54;;;;;;;29.50;5.43;;;12.30;99.90;;;;;;5023897;28;20109;-76
2023/11/20 07:45:20;;;;;;;26.88;6.35;;;12.30;99.90;;;;;;5021779;27;20091;-74
2023/11/20 07:47:46;;;;;;;21.27;5.47;;;12.40;99.90;;;;;;5013576;27;20111;-78
2023/11/20 07:50:14;;;;;;;27.95;5.63;;;12.30;99.90;;;;;;5024973;27;20486;-76
2023/11/20 07:52:41;;;;;;;27.30;5.05;;;12.30;99.90;;;;;;5026805;27;20023;-74
2023/11/20 07:55:08;;;;;;;26.13;5.80;;;12.30;99.90;;;;;;5030648;27;20060;-76
2023/11/20 07:57:34;;;;;;;23.65;5.03;;;12.30;99.90;;;;;;5033386;27;20018;-75
2023/11/20 08:00:00;;;;;;;25.58;5.80;;;12.40;99.90;;;;;;5022319;27;20022;-75
2023/11/20 08:02:26;;;;;;;25.75;5.65;;;12.30;99.90;;;;;;5024194;27;20505;-75
2023/11/20 08:04:52;;;;;;;27.85;5.70;;;12.40;99.90;;;;;;5037669;27;20031;-76
2023/11/20 08:07:18;;;;;;;29.23;5.55;;;12.40;99.90;;;;;;5020366;28;20037;-78
2023/11/20 08:09:44;;;;;;;25.55;5.53;;;12.30;99.90;;;;;;5034307;27;20064;-78
2023/11/20 08:12:10;;;;;;;28.30;5.57;;;12.30;99.90;;;;;;5021530;27;20061;-77
2023/11/20 08:14:36;;;;;;;27.55;5.43;;;12.30;99.90;;;;;;5025586;27;20063;-78
2023/11/20 08:17:02;;;;;;;24.52;5.43;;;12.40;99.90;;;;;;5031529;27;20097;-76
2023/11/20 08:19:29;;;;;;;21.92;4.97;;;12.50;99.90;;;;;;5022506;27;20022;-74
2023/11/20 08:21:54;;;;;;;29.85;5.18;;;12.50;99.90;;;;;;5024839;27;20030;-77
2023/11/20 08:24:20;;;;;;;30.55;6.03;;;12.60;99.90;;;;;;5026188;27;20070;-75
2023/11/20 08:26:49;;;;;;;27.92;5.18;;;12.70;99.90;;;;;;5025661;27;20036;-76
2023/11/20 08:29:16;;;;;;;22.35;4.38;;;12.60;99.90;;;;;;5020405;27;20520;-75
2023/11/20 08:31:45;;;;;;;17.55;4.60;;;12.60;99.90;;;;;;5020580;28;20028;-75
2023/11/20 08:34:11;;;;;;;22.08;4.97;;;12.60;99.90;;;;;;5019647;27;20566;-78
2023/11/20 08:36:37;;;;;;;21.25;4.00;;;12.60;99.90;;;;;;5032448;27;20019;-73
2023/11/20 08:39:05;;;;;;;24.55;4.68;;;12.60;99.90;;;;;;5014741;27;20036;-74
2023/11/20 08:41:31;;;;;;;19.85;4.05;;;12.60;99.90;;;;;;5037217;27;20025;-74
2023/11/20 08:43:59;;;;;;;17.20;4.05;;;12.60;99.90;;;;;;5031502;27;20364;-74
2023/11/20 08:46:25;;;;;;;21.80;4.57;;;12.60;99.90;;;;;;5033606;27;20037;-72
2023/11/20 08:48:51;;;;;;;23.67;5.53;;;12.60;99.90;;;;;;5019197;27;20026;-73
2023/11/20 08:51:17;;;;;;;26.92;4.75;;;12.50;99.90;;;;;;5025223;27;20026;-74
2023/11/20 08:53:43;;;;;;;25.77;4.45;;;12.40;99.90;;;;;;5024300;28;20079;-74
2023/11/20 08:56:10;;;;;;;21.60;4.82;;;12.40;99.90;;;;;;5027164;27;20036;-73
2023/11/20 08:58:36;;;;;;;24.70;5.18;;;12.50;99.90;;;;;;5038599;27;20036;-73
2023/11/20 09:01:02;;;;;;;15.60;3.95;;;12.50;99.90;;;;;;5038685;27;20021;-72
2023/11/20 09:03:28;;;;;;;23.27;4.63;;;12.50;99.90;;;;;;5022273;28;20231;-73
2023/11/20 09:05:54;;;;;;;19.13;4.07;;;12.60;99.90;;;;;;5027127;27;20435;-72
2023/11/20 09:08:20;;;;;;;19.55;4.45;;;12.60;99.90;;;;;;5021774;27;20022;-76
2023/11/20 09:10:46;;;;;;;21.80;4.57;;;12.60;99.90;;;;;;5022418;27;20022;-76
2023/11/20 09:13:12;;;;;;;19.77;4.25;;;12.70;99.90;;;;;;5032691;27;20037;-73
2023/11/20 09:15:38;;;;;;;21.73;4.95;;;12.60;99.90;;;;;;5025512;27;20101;-76
2023/11/20 09:18:04;;;;;;;20.48;3.75;;;12.70;99.90;;;;;;5020039;27;20580;-76
2023/11/20 09:20:31;;;;;;;16.10;4.07;;;12.70;99.90;;;;;;5023833;27;20071;-75
2023/11/20 09:22:56;;;;;;;20.27;4.25;;;12.70;99.90;;;;;;5027193;27;20030;-76
2023/11/20 09:25:22;;;;;;;20.10;4.18;;;12.70;99.90;;;;;;5024075;27;20033;-76
2023/11/20 09:27:48;;;;;;;22.23;4.32;;;12.80;99.90;;;;;;5025704;27;20019;-76
2023/11/20 09:30:14;;;;;;;15.60;3.65;;;12.80;99.90;;;;;;5018549;27;20368;-76
2023/11/20 09:32:40;;;;;;;17.60;3.53;;;12.90;99.90;;;;;;5029958;27;20112;-73
2023/11/20 09:35:08;;;;;;;13.52;3.63;;;12.90;99.90;;;;;;5027562;27;20058;-77
2023/11/20 09:37:34;;;;;;;16.52;4.50;;;13.00;99.90;;;;;;5018521;28;20907;-75
2023/11/20 09:40:04;;;;;;;12.77;3.45;;;13.10;99.90;;;;;;5016737;27;20038;-74
2023/11/20 09:42:30;;;;;;;18.17;3.28;;;13.20;99.90;;;;;;5030289;27;20478;-72
2023/11/20 09:45:00;;;;;;;9.80;3.25;;;13.20;99.90;;;;;;5025647;27;20036;-75
2023/11/20 09:47:29;;;;;;;10.00;3.55;;;13.20;99.90;;;;;;5029472;27;20072;-76
2023/11/20 09:49:56;;;;;;;11.60;3.60;;;13.10;99.90;;;;;;5020116;28;20025;-73
2023/11/20 09:52:24;;;;;;;10.15;2.67;;;13.10;99.90;;;;;;5029529;28;20420;-72
2023/11/20 09:54:54;;;;;;;13.10;3.05;;;13.00;99.90;;;;;;5034263;28;20050;-75
2023/11/20 09:57:24;;;;;;;12.65;3.00;;;13.00;99.90;;;;;;5028334;28;20026;-73
2023/11/20 09:59:51;;;;;;;7.20;2.38;;;13.10;99.90;;;;;;5022928;28;20486;-73
2023/11/20 10:02:17;;;;;;;8.20;2.08;;;13.10;99.90;;;;;;5029103;27;20033;-72
2023/11/20 10:04:45;;;;;;;8.00;1.67;;;13.10;99.90;;;;;;5025678;27;20029;-72
2023/11/20 10:07:15;;;;;;;6.20;1.70;;;13.20;99.90;;;;;;5022502;28;20053;-74
2023/11/20 10:09:47;;;;;;;6.97;1.67;;;13.20;99.90;;;;;;5016614;28;20034;-73
2023/11/20 10:12:13;;;;;;;;;;;13.20;99.90;;;;;;5028175;28;20014;-74
2023/11/20 10:14:39;;;;;;;12.85;2.35;;;13.10;99.90;;;;;;5033626;28;20400;-76
2023/11/20 10:17:05;;;;;;;6.97;2.08;;;13.10;99.90;;;;;;5033174;28;20382;-74
2023/11/20 10:19:32;;;;;;;6.15;1.80;;;13.10;99.90;;;;;;5029306;27;20033;-73
2023/11/20 10:21:58;;;;;;;10.90;1.92;;;13.10;99.90;;;;;;5028537;28;20029;-73
2023/11/20 10:24:25;;;;;;;11.55;2.40;;;13.10;99.90;;;;;;5031767;28;20019;-75
2023/11/20 10:26:52;;;;;;;5.65;1.77;;;13.10;99.90;;;;;;5029853;28;20026;-73
2023/11/20 10:29:20;;;;;;;6.63;1.58;;;13.00;99.90;;;;;;5031762;28;20033;-74
2023/11/20 10:31:47;;;;;;;7.93;1.45;;;13.10;99.90;;;;;;5024884;28;20037;-74
2023/11/20 10:34:14;;;;;;;8.23;1.77;;;13.10;99.90;;;;;;5018166;28;20018;-73
2023/11/20 10:36:40;;;;;;;8.20;2.08;;;13.10;99.90;;;;;;5022337;28;20562;-75
2023/11/20 10:39:08;;;;;;;9.57;1.83;;;13.10;99.90;;;;;;5026014;28;20025;-74
2023/11/20 10:41:40;;;;;;;5.47;1.30;;;13.10;99.90;;;;;;5028770;28;20021;-76
2023/11/20 10:44:07;;;;;;;4.47;1.73;;;13.10;99.90;;;;;;5036688;28;20082;-74
2023/11/20 10:46:33;;;;;;;9.82;1.92;;;13.00;99.90;;;;;;5033849;28;21175;-75
2023/11/20 10:49:06;;;;;;;6.53;1.50;;;13.00;99.90;;;;;;5025888;28;20100;-75
2023/11/20 10:51:34;;;;;;;8.48;2.00;;;13.10;99.90;;;;;;5031939;28;20032;-76
2023/11/20 10:54:03;;;;;;;4.88;1.50;;;13.10;99.90;;;;;;5031791;28;20085;-74
2023/11/20 10:56:32;;;;;;;8.80;1.70;;;13.20;99.90;;;;;;5030274;28;20076;-73
2023/11/20 10:59:00;;;;;;;6.97;1.80;;;13.20;99.90;;;;;;5022333;28;20064;-76
2023/11/20 11:01:32;;;;;;;7.30;1.65;;;13.20;99.90;;;;;;5026329;28;20025;-77
2023/11/20 11:03:58;;;;;;;7.45;1.77;;;13.20;99.90;;;;;;5024147;28;20025;-73
2023/11/20 11:06:27;;;;;;;6.32;1.75;;;13.10;99.90;;;;;;5026941;28;20042;-75
2023/11/20 11:08:57;;;;;;;6.78;1.77;;;13.10;99.90;;;;;;5027657;28;20025;-77
2023/11/20 11:11:25;;;;;;;4.80;1.90;;;13.00;99.90;;;;;;5027038;28;20280;-77
2023/11/20 11:13:51;;;;;;;7.72;2.05;;;13.00;99.90;;;;;;5027143;28;20377;-75
2023/11/20 11:16:37;;;;;;;5.47;1.80;;;13.00;99.90;;;;;;5043242;27;20042;-74
2023/11/20 11:19:06;;;;;;;10.05;2.53;;;13.00;99.90;;;;;;5032632;27;20622;-76
2023/11/20 11:21:46;;;;;;;6.57;2.17;;;13.00;99.90;;;;;;5031103;27;20459;-77
2023/11/20 11:24:15;;;;;;;9.18;2.40;;;13.00;99.90;;;;;;5039033;27;20054;-77
2023/11/20 11:26:48;;;;;;;7.25;2.15;;;12.90;99.90;;;;;;5033927;27;20074;-77
2023/11/20 11:29:16;;;;;;;;;;;12.90;99.90;;;;;;5021279;27;20109;-77
2023/11/20 11:32:20;;;;;;;10.13;2.90;;;12.80;99.90;;;;;;5032974;27;19917;-77
2023/11/20 11:35:25;;;;;;;11.88;2.95;;;12.90;99.90;;;;;;5036943;27;20032;-76
2023/11/20 11:38:01;;;;;;;10.02;2.83;;;13.00;99.90;;;;;;5041770;27;20018;-76
2023/11/20 11:40:33;;;;;;;9.88;3.10;;;13.00;99.90;;;;;;5031120;28;20642;-76
2023/11/20 11:43:07;;;;;;;6.15;2.85;;;13.00;99.90;;;;;;5031773;27;20013;-76
2023/11/20 11:45:33;;;;;;;6.35;2.53;;;13.00;99.90;;;;;;5034409;27;20029;-73
2023/11/20 11:47:59;;;;;;;11.90;3.33;;;12.90;99.90;;;;;;5041356;27;20026;-75
2023/11/20 11:50:26;;;;;;;7.35;2.78;;;12.90;99.90;;;;;;5040594;27;20029;-78
2023/11/20 11:52:55;;;;;;;12.00;2.70;;;12.90;99.90;;;;;;5035155;27;20026;-74
2023/11/20 11:55:24;;;;;;;11.07;2.60;;;12.90;99.90;;;;;;5029532;28;20031;-76
2023/11/20 11:58:17;;;;;;;9.20;2.20;;;12.90;99.90;;;;;;5022079;28;20419;-74
2023/11/20 12:01:03;;;;;;;14.65;2.85;;;13.00;99.90;;;;;;5033166;27;20044;-73
2023/11/20 12:03:35;;;;;;;14.13;2.75;;;13.00;99.90;;;;;;5032194;27;20021;-73
2023/11/20 12:06:01;;;;;;;10.57;1.90;;;13.00;99.90;;;;;;5036022;27;20045;-74
2023/11/20 12:08:35;;;;;;;14.05;2.10;;;13.00;99.90;;;;;;5038788;27;20022;-73
2023/11/20 12:11:01;;;;;;;6.15;2.28;;;12.90;99.90;;;;;;5029025;28;20041;-74
2023/11/20 12:13:26;;;;;;;13.13;2.80;;;12.90;99.90;;;;;;5020766;27;20457;-73
2023/11/20 12:15:56;;;;;;;8.77;2.20;;;13.00;99.90;;;;;;5030412;28;20029;-75
2023/11/20 12:18:32;;;;;;;7.15;2.20;;;13.00;99.90;;;;;;5028482;27;20397;-73
2023/11/20 12:20:57;;;;;;;6.88;2.47;;;13.10;99.90;;;;;;5031241;27;20043;-73
2023/11/20 12:23:35;;;;;;;8.77;2.22;;;13.10;99.90;;;;;;5032669;27;20021;-75
2023/11/20 12:26:03;;;;;;;11.60;2.40;;;12.90;99.90;;;;;;5038034;27;20033;-75
2023/11/20 12:28:33;;;;;;;9.35;2.63;;;13.00;99.90;;;;;;5038804;27;20025;-74
2023/11/20 12:31:04;;;;;;;12.35;2.47;;;13.00;99.90;;;;;;5028009;27;20104;-76
2023/11/20 12:33:33;;;;;;;10.70;2.42;;;13.10;99.90;;;;;;5029267;27;20225;-73
2023/11/20 12:36:00;;;;;;;7.90;3.00;;;13.10;99.90;;;;;;5036602;27;20029;-77
2023/11/20 12:38:34;;;;;;;9.32;2.80;;;13.00;99.90;;;;;;5030839;27;20022;-74